sensor_id;sensor_type;location;lat;lon;timestamp;P1;durP1;ratioP1;P2;durP2;ratioP2
1721;SDS011;858;53.190;8.596;2023-09-08T00:01:46;9.67;;;8.70;;
1721;SDS011;858;53.190;8.596;2023-09-08T00:04:13;9.60;;;8.80;;
1721;SDS011;858;53.190;8.596;2023-09-08T00:06:39;12.37;;;9.43;;
1721;SDS011;858;53.190;8.596;2023-09-08T00:09:06;15.03;;;9.30;;
1721;SDS011;858;53.190;8.596;2023-09-08T00:11:32;12.70;;;9.10;;
1721;SDS011;858;53.190;8.596;2023-09-08T00:14:00;10.03;;;9.20;;
1721;SDS011;858;53.190;8.596;2023-09-08T00:16:28;9.70;;;8.80;;
1721;SDS011;858;53.190;8.596;2023-09-08T00:18:55;9.73;;;8.70;;
1721;SDS011;858;53.190;8.596;2023-09-08T00:21:22;9.03;;;8.23;;
1721;SDS011;858;53.190;8.596;2023-09-08T00:23:48;10.63;;;9.63;;
1721;SDS011;858;53.190;8.596;2023-09-08T00:26:15;9.50;;;8.60;;
1721;SDS011;858;53.190;8.596;2023-09-08T00:28:41;10.10;;;9.10;;
1721;SDS011;858;53.190;8.596;2023-09-08T00:31:11;10.33;;;9.33;;
1721;SDS011;858;53.190;8.596;2023-09-08T00:33:37;10.50;;;9.50;;
1721;SDS011;858;53.190;8.596;2023-09-08T00:36:04;10.47;;;9.43;;
1721;SDS011;858;53.190;8.596;2023-09-08T00:38:30;9.60;;;8.80;;
1721;SDS011;858;53.190;8.596;2023-09-08T00:40:59;11.00;;;7.90;;
1721;SDS011;858;53.190;8.596;2023-09-08T00:43:26;9.60;;;7.93;;
1721;SDS011;858;53.190;8.596;2023-09-08T00:45:52;9.70;;;8.80;;
1721;SDS011;858;53.190;8.596;2023-09-08T00:48:21;10.30;;;9.30;;
1721;SDS011;858;53.190;8.596;2023-09-08T00:50:48;10.70;;;9.43;;
1721;SDS011;858;53.190;8.596;2023-09-08T00:53:14;10.37;;;8.60;;
1721;SDS011;858;53.190;8.596;2023-09-08T00:55:40;10.00;;;8.97;;
1721;SDS011;858;53.190;8.596;2023-09-08T00:58:07;10.17;;;9.20;;
1721;SDS011;858;53.190;8.596;2023-09-08T01:00:33;10.50;;;9.50;;
1721;SDS011;858;53.190;8.596;2023-09-08T01:03:00;11.10;;;10.00;;
1721;SDS011;858;53.190;8.596;2023-09-08T01:05:29;9.73;;;8.57;;
1721;SDS011;858;53.190;8.596;2023-09-08T01:07:55;11.17;;;10.17;;
1721;SDS011;858;53.190;8.596;2023-09-08T01:10:22;10.30;;;9.30;;
1721;SDS011;858;53.190;8.596;2023-09-08T01:12:48;10.33;;;9.33;;
1721;SDS011;858;53.190;8.596;2023-09-08T01:15:15;10.70;;;9.63;;
1721;SDS011;858;53.190;8.596;2023-09-08T01:17:41;24.13;;;10.70;;
1721;SDS011;858;53.190;8.596;2023-09-08T01:20:13;11.60;;;9.77;;
1721;SDS011;858;53.190;8.596;2023-09-08T01:25:32;9.83;;;8.83;;
1721;SDS011;858;53.190;8.596;2023-09-08T01:28:01;10.17;;;9.17;;
1721;SDS011;858;53.190;8.596;2023-09-08T01:30:30;11.67;;;10.20;;
1721;SDS011;858;53.190;8.596;2023-09-08T01:32:58;10.00;;;9.00;;
1721;SDS011;858;53.190;8.596;2023-09-08T01:35:24;10.00;;;9.00;;
1721;SDS011;858;53.190;8.596;2023-09-08T01:37:51;10.17;;;8.87;;
1721;SDS011;858;53.190;8.596;2023-09-08T01:40:17;10.17;;;9.17;;
1721;SDS011;858;53.190;8.596;2023-09-08T01:42:47;11.67;;;10.57;;
1721;SDS011;858;53.190;8.596;2023-09-08T01:45:14;13.53;;;9.90;;
1721;SDS011;858;53.190;8.596;2023-09-08T01:47:40;9.83;;;8.93;;
1721;SDS011;858;53.190;8.596;2023-09-08T01:50:06;10.00;;;9.00;;
1721;SDS011;858;53.190;8.596;2023-09-08T01:52:33;10.33;;;9.27;;
1721;SDS011;858;53.190;8.596;2023-09-08T01:54:59;9.30;;;8.50;;
1721;SDS011;858;53.190;8.596;2023-09-08T01:57:28;10.63;;;9.47;;
1721;SDS011;858;53.190;8.596;2023-09-08T01:59:56;11.67;;;9.80;;
1721;SDS011;858;53.190;8.596;2023-09-08T02:02:22;10.33;;;9.00;;
1721;SDS011;858;53.190;8.596;2023-09-08T02:04:49;12.50;;;10.27;;
1721;SDS011;858;53.190;8.596;2023-09-08T02:07:15;9.57;;;8.50;;
1721;SDS011;858;53.190;8.596;2023-09-08T02:09:41;11.13;;;9.10;;
1721;SDS011;858;53.190;8.596;2023-09-08T02:12:08;11.40;;;10.30;;
1721;SDS011;858;53.190;8.596;2023-09-08T02:14:34;10.00;;;9.00;;
1721;SDS011;858;53.190;8.596;2023-09-08T02:17:04;9.97;;;9.00;;
1721;SDS011;858;53.190;8.596;2023-09-08T02:19:31;10.57;;;9.40;;
1721;SDS011;858;53.190;8.596;2023-09-08T02:21:57;9.73;;;8.83;;
1721;SDS011;858;53.190;8.596;2023-09-08T02:24:24;8.70;;;8.00;;
1721;SDS011;858;53.190;8.596;2023-09-08T02:26:50;11.73;;;9.00;;
1721;SDS011;858;53.190;8.596;2023-09-08T02:29:17;10.00;;;9.00;;
1721;SDS011;858;53.190;8.596;2023-09-08T02:31:43;11.43;;;10.43;;
1721;SDS011;858;53.190;8.596;2023-09-08T02:34:13;10.50;;;9.40;;
1721;SDS011;858;53.190;8.596;2023-09-08T02:36:42;10.40;;;9.50;;
1721;SDS011;858;53.190;8.596;2023-09-08T02:39:08;12.50;;;9.87;;
1721;SDS011;858;53.190;8.596;2023-09-08T02:41:36;10.23;;;9.27;;
1721;SDS011;858;53.190;8.596;2023-09-08T02:44:03;10.80;;;9.67;;
1721;SDS011;858;53.190;8.596;2023-09-08T02:46:29;10.93;;;9.83;;
1721;SDS011;858;53.190;8.596;2023-09-08T02:48:56;12.00;;;9.83;;
1721;SDS011;858;53.190;8.596;2023-09-08T02:51:24;11.93;;;10.60;;
1721;SDS011;858;53.190;8.596;2023-09-08T02:53:50;13.20;;;9.87;;
1721;SDS011;858;53.190;8.596;2023-09-08T02:56:16;10.27;;;9.37;;
1721;SDS011;858;53.190;8.596;2023-09-08T02:58:43;11.67;;;10.27;;
1721;SDS011;858;53.190;8.596;2023-09-08T03:01:11;10.93;;;9.93;;
1721;SDS011;858;53.190;8.596;2023-09-08T03:03:38;10.53;;;9.43;;
1721;SDS011;858;53.190;8.596;2023-09-08T03:06:05;10.53;;;9.50;;
1721;SDS011;858;53.190;8.596;2023-09-08T03:08:33;12.03;;;9.67;;
1721;SDS011;858;53.190;8.596;2023-09-08T03:11:02;11.13;;;9.93;;
1721;SDS011;858;53.190;8.596;2023-09-08T03:13:28;11.77;;;9.70;;
1721;SDS011;858;53.190;8.596;2023-09-08T03:15:55;12.67;;;10.47;;
1721;SDS011;858;53.190;8.596;2023-09-08T03:18:21;10.00;;;9.10;;
1721;SDS011;858;53.190;8.596;2023-09-08T03:20:48;11.43;;;10.40;;
1721;SDS011;858;53.190;8.596;2023-09-08T03:23:16;11.90;;;10.63;;
1721;SDS011;858;53.190;8.596;2023-09-08T03:25:43;12.27;;;10.30;;
1721;SDS011;858;53.190;8.596;2023-09-08T03:28:11;10.07;;;9.07;;
1721;SDS011;858;53.190;8.596;2023-09-08T03:30:37;12.70;;;9.83;;
1721;SDS011;858;53.190;8.596;2023-09-08T03:33:04;10.57;;;9.60;;
1721;SDS011;858;53.190;8.596;2023-09-08T03:35:30;12.33;;;10.77;;
1721;SDS011;858;53.190;8.596;2023-09-08T03:37:57;10.60;;;9.57;;
1721;SDS011;858;53.190;8.596;2023-09-08T03:40:23;10.87;;;9.83;;
1721;SDS011;858;53.190;8.596;2023-09-08T03:42:51;11.10;;;10.00;;
1721;SDS011;858;53.190;8.596;2023-09-08T03:45:17;11.37;;;10.33;;
1721;SDS011;858;53.190;8.596;2023-09-08T03:47:44;10.33;;;9.33;;
1721;SDS011;858;53.190;8.596;2023-09-08T03:50:10;11.57;;;10.40;;
1721;SDS011;858;53.190;8.596;2023-09-08T03:52:36;10.60;;;9.50;;
1721;SDS011;858;53.190;8.596;2023-09-08T03:55:03;13.80;;;9.97;;
1721;SDS011;858;53.190;8.596;2023-09-08T03:57:31;13.43;;;9.93;;
1721;SDS011;858;53.190;8.596;2023-09-08T03:59:59;10.87;;;9.80;;
1721;SDS011;858;53.190;8.596;2023-09-08T04:02:25;11.43;;;10.20;;
1721;SDS011;858;53.190;8.596;2023-09-08T04:04:51;10.60;;;9.70;;
1721;SDS011;858;53.190;8.596;2023-09-08T04:07:18;9.97;;;8.83;;
1721;SDS011;858;53.190;8.596;2023-09-08T04:09:44;13.57;;;10.37;;
1721;SDS011;858;53.190;8.596;2023-09-08T04:12:10;12.33;;;10.80;;
1721;SDS011;858;53.190;8.596;2023-09-08T04:14:37;11.37;;;10.17;;
1721;SDS011;858;53.190;8.596;2023-09-08T04:17:04;9.90;;;8.90;;
1721;SDS011;858;53.190;8.596;2023-09-08T04:19:31;11.80;;;10.50;;
1721;SDS011;858;53.190;8.596;2023-09-08T04:21:57;10.87;;;9.77;;
1721;SDS011;858;53.190;8.596;2023-09-08T04:24:23;12.13;;;10.53;;
1721;SDS011;858;53.190;8.596;2023-09-08T04:26:49;11.40;;;10.20;;
1721;SDS011;858;53.190;8.596;2023-09-08T04:29:15;12.07;;;10.27;;
1721;SDS011;858;53.190;8.596;2023-09-08T04:31:42;11.50;;;10.30;;
1721;SDS011;858;53.190;8.596;2023-09-08T04:34:10;12.27;;;11.07;;
1721;SDS011;858;53.190;8.596;2023-09-08T04:36:36;13.17;;;11.97;;
1721;SDS011;858;53.190;8.596;2023-09-08T04:39:03;13.60;;;11.80;;
1721;SDS011;858;53.190;8.596;2023-09-08T04:41:29;12.53;;;11.33;;
1721;SDS011;858;53.190;8.596;2023-09-08T04:43:55;11.70;;;10.50;;
1721;SDS011;858;53.190;8.596;2023-09-08T04:46:23;14.00;;;12.50;;
1721;SDS011;858;53.190;8.596;2023-09-08T04:48:49;11.40;;;10.30;;
1721;SDS011;858;53.190;8.596;2023-09-08T04:51:17;11.73;;;10.60;;
1721;SDS011;858;53.190;8.596;2023-09-08T04:53:44;12.17;;;10.90;;
1721;SDS011;858;53.190;8.596;2023-09-08T04:56:11;13.97;;;11.80;;
1721;SDS011;858;53.190;8.596;2023-09-08T04:58:37;11.60;;;10.23;;
1721;SDS011;858;53.190;8.596;2023-09-08T05:01:04;11.83;;;10.63;;
1721;SDS011;858;53.190;8.596;2023-09-08T05:03:33;13.00;;;9.70;;
1721;SDS011;858;53.190;8.596;2023-09-08T05:05:59;11.60;;;10.60;;
1721;SDS011;858;53.190;8.596;2023-09-08T05:08:27;11.90;;;10.70;;
1721;SDS011;858;53.190;8.596;2023-09-08T05:10:54;12.67;;;10.33;;
1721;SDS011;858;53.190;8.596;2023-09-08T05:13:21;12.03;;;10.43;;
1721;SDS011;858;53.190;8.596;2023-09-08T05:15:51;12.53;;;11.03;;
1721;SDS011;858;53.190;8.596;2023-09-08T05:18:24;12.60;;;10.73;;
1721;SDS011;858;53.190;8.596;2023-09-08T05:20:51;11.97;;;10.77;;
1721;SDS011;858;53.190;8.596;2023-09-08T05:23:17;11.97;;;10.77;;
1721;SDS011;858;53.190;8.596;2023-09-08T05:25:45;16.03;;;12.20;;
1721;SDS011;858;53.190;8.596;2023-09-08T05:28:12;14.83;;;11.37;;
1721;SDS011;858;53.190;8.596;2023-09-08T05:30:38;12.30;;;11.10;;
1721;SDS011;858;53.190;8.596;2023-09-08T05:33:06;15.90;;;11.83;;
1721;SDS011;858;53.190;8.596;2023-09-08T05:35:32;13.13;;;11.80;;
1721;SDS011;858;53.190;8.596;2023-09-08T05:37:59;13.70;;;11.43;;
1721;SDS011;858;53.190;8.596;2023-09-08T05:40:25;12.17;;;10.87;;
1721;SDS011;858;53.190;8.596;2023-09-08T05:42:54;13.27;;;11.63;;
1721;SDS011;858;53.190;8.596;2023-09-08T05:45:20;13.00;;;11.23;;
1721;SDS011;858;53.190;8.596;2023-09-08T05:47:50;13.33;;;12.03;;
1721;SDS011;858;53.190;8.596;2023-09-08T05:50:17;13.97;;;11.87;;
1721;SDS011;858;53.190;8.596;2023-09-08T05:52:43;14.10;;;11.57;;
1721;SDS011;858;53.190;8.596;2023-09-08T05:55:10;12.73;;;11.47;;
1721;SDS011;858;53.190;8.596;2023-09-08T05:57:36;12.47;;;11.27;;
1721;SDS011;858;53.190;8.596;2023-09-08T06:00:05;13.37;;;12.07;;
1721;SDS011;858;53.190;8.596;2023-09-08T06:02:32;14.70;;;12.23;;
1721;SDS011;858;53.190;8.596;2023-09-08T06:04:58;18.23;;;12.80;;
1721;SDS011;858;53.190;8.596;2023-09-08T06:07:25;13.23;;;11.83;;
1721;SDS011;858;53.190;8.596;2023-09-08T06:09:52;14.40;;;11.87;;
1721;SDS011;858;53.190;8.596;2023-09-08T06:12:18;13.40;;;11.67;;
1721;SDS011;858;53.190;8.596;2023-09-08T06:14:45;13.70;;;12.27;;
1721;SDS011;858;53.190;8.596;2023-09-08T06:17:12;16.97;;;14.10;;
1721;SDS011;858;53.190;8.596;2023-09-08T06:19:39;17.10;;;13.80;;
1721;SDS011;858;53.190;8.596;2023-09-08T06:22:05;14.50;;;13.00;;
1721;SDS011;858;53.190;8.596;2023-09-08T06:24:31;13.47;;;11.93;;
1721;SDS011;858;53.190;8.596;2023-09-08T06:26:58;17.03;;;13.27;;
1721;SDS011;858;53.190;8.596;2023-09-08T06:29:25;16.43;;;11.87;;
1721;SDS011;858;53.190;8.596;2023-09-08T06:31:52;16.07;;;14.10;;
1721;SDS011;858;53.190;8.596;2023-09-08T06:34:20;15.10;;;12.73;;
1721;SDS011;858;53.190;8.596;2023-09-08T06:36:48;15.13;;;13.63;;
1721;SDS011;858;53.190;8.596;2023-09-08T06:39:15;18.30;;;13.03;;
1721;SDS011;858;53.190;8.596;2023-09-08T06:41:41;18.20;;;13.87;;
1721;SDS011;858;53.190;8.596;2023-09-08T06:44:08;18.67;;;13.73;;
1721;SDS011;858;53.190;8.596;2023-09-08T06:46:36;13.67;;;12.23;;
1721;SDS011;858;53.190;8.596;2023-09-08T06:49:02;16.33;;;13.30;;
1721;SDS011;858;53.190;8.596;2023-09-08T06:51:30;14.17;;;12.60;;
1721;SDS011;858;53.190;8.596;2023-09-08T06:53:57;19.20;;;12.17;;
1721;SDS011;858;53.190;8.596;2023-09-08T06:56:25;17.40;;;12.40;;
1721;SDS011;858;53.190;8.596;2023-09-08T06:58:51;18.90;;;12.47;;
1721;SDS011;858;53.190;8.596;2023-09-08T07:01:18;13.90;;;11.97;;
1721;SDS011;858;53.190;8.596;2023-09-08T07:03:44;16.60;;;13.40;;
1721;SDS011;858;53.190;8.596;2023-09-08T07:06:10;12.13;;;10.63;;
1721;SDS011;858;53.190;8.596;2023-09-08T07:08:40;19.87;;;12.37;;
1721;SDS011;858;53.190;8.596;2023-09-08T07:11:06;14.20;;;12.40;;
1721;SDS011;858;53.190;8.596;2023-09-08T07:13:33;13.13;;;11.73;;
1721;SDS011;858;53.190;8.596;2023-09-08T07:15:59;17.27;;;13.03;;
1721;SDS011;858;53.190;8.596;2023-09-08T07:18:25;18.23;;;12.37;;
1721;SDS011;858;53.190;8.596;2023-09-08T07:20:52;16.07;;;12.43;;
1721;SDS011;858;53.190;8.596;2023-09-08T07:23:18;18.97;;;11.33;;
1721;SDS011;858;53.190;8.596;2023-09-08T07:25:46;17.17;;;12.07;;
1721;SDS011;858;53.190;8.596;2023-09-08T07:28:13;14.40;;;12.10;;
1721;SDS011;858;53.190;8.596;2023-09-08T07:30:39;16.83;;;12.23;;
1721;SDS011;858;53.190;8.596;2023-09-08T07:33:06;15.40;;;11.67;;
1721;SDS011;858;53.190;8.596;2023-09-08T07:35:32;12.53;;;10.73;;
1721;SDS011;858;53.190;8.596;2023-09-08T07:37:59;17.40;;;11.50;;
1721;SDS011;858;53.190;8.596;2023-09-08T07:40:25;14.40;;;11.10;;
1721;SDS011;858;53.190;8.596;2023-09-08T07:42:53;14.03;;;11.43;;
1721;SDS011;858;53.190;8.596;2023-09-08T07:45:19;14.27;;;11.50;;
1721;SDS011;858;53.190;8.596;2023-09-08T07:47:46;15.73;;;10.73;;
1721;SDS011;858;53.190;8.596;2023-09-08T07:50:16;23.20;;;10.63;;
1721;SDS011;858;53.190;8.596;2023-09-08T07:52:42;12.13;;;10.60;;
1721;SDS011;858;53.190;8.596;2023-09-08T07:55:09;14.50;;;10.83;;
1721;SDS011;858;53.190;8.596;2023-09-08T07:57:35;13.67;;;10.40;;
1721;SDS011;858;53.190;8.596;2023-09-08T08:00:04;13.73;;;10.97;;
1721;SDS011;858;53.190;8.596;2023-09-08T08:02:30;23.80;;;11.73;;
1721;SDS011;858;53.190;8.596;2023-09-08T08:04:58;16.50;;;11.20;;
1721;SDS011;858;53.190;8.596;2023-09-08T08:07:24;12.70;;;10.37;;
1721;SDS011;858;53.190;8.596;2023-09-08T08:09:50;14.97;;;11.60;;
1721;SDS011;858;53.190;8.596;2023-09-08T08:12:18;12.43;;;10.67;;
1721;SDS011;858;53.190;8.596;2023-09-08T08:14:45;18.17;;;11.50;;
1721;SDS011;858;53.190;8.596;2023-09-08T08:17:13;16.90;;;12.03;;
1721;SDS011;858;53.190;8.596;2023-09-08T08:19:42;17.10;;;11.37;;
1721;SDS011;858;53.190;8.596;2023-09-08T08:22:08;14.07;;;11.60;;
1721;SDS011;858;53.190;8.596;2023-09-08T08:24:35;15.07;;;11.80;;
1721;SDS011;858;53.190;8.596;2023-09-08T08:27:01;15.17;;;11.30;;
1721;SDS011;858;53.190;8.596;2023-09-08T08:29:28;18.83;;;11.87;;
1721;SDS011;858;53.190;8.596;2023-09-08T08:31:54;14.37;;;10.80;;
1721;SDS011;858;53.190;8.596;2023-09-08T08:34:22;21.57;;;11.20;;
1721;SDS011;858;53.190;8.596;2023-09-08T08:36:48;14.53;;;11.70;;
1721;SDS011;858;53.190;8.596;2023-09-08T08:39:14;17.50;;;11.30;;
1721;SDS011;858;53.190;8.596;2023-09-08T08:41:41;12.20;;;10.97;;
1721;SDS011;858;53.190;8.596;2023-09-08T08:44:08;17.40;;;11.13;;
1721;SDS011;858;53.190;8.596;2023-09-08T08:46:35;16.23;;;10.37;;
1721;SDS011;858;53.190;8.596;2023-09-08T08:49:02;25.00;;;10.93;;
1721;SDS011;858;53.190;8.596;2023-09-08T08:51:30;10.83;;;9.73;;
1721;SDS011;858;53.190;8.596;2023-09-08T08:53:57;11.80;;;10.60;;
1721;SDS011;858;53.190;8.596;2023-09-08T08:56:25;17.50;;;10.80;;
1721;SDS011;858;53.190;8.596;2023-09-08T08:58:52;12.10;;;10.27;;
1721;SDS011;858;53.190;8.596;2023-09-08T09:01:18;13.23;;;10.67;;
1721;SDS011;858;53.190;8.596;2023-09-08T09:03:46;12.90;;;11.30;;
1721;SDS011;858;53.190;8.596;2023-09-08T09:06:14;17.47;;;11.20;;
1721;SDS011;858;53.190;8.596;2023-09-08T09:08:43;15.00;;;10.70;;
1721;SDS011;858;53.190;8.596;2023-09-08T09:11:09;17.00;;;10.70;;
1721;SDS011;858;53.190;8.596;2023-09-08T09:13:36;13.33;;;9.60;;
1721;SDS011;858;53.190;8.596;2023-09-08T09:16:03;19.10;;;11.30;;
1721;SDS011;858;53.190;8.596;2023-09-08T09:18:33;25.87;;;10.80;;
1721;SDS011;858;53.190;8.596;2023-09-08T09:20:59;20.33;;;10.00;;
1721;SDS011;858;53.190;8.596;2023-09-08T09:23:26;18.30;;;10.53;;
1721;SDS011;858;53.190;8.596;2023-09-08T09:25:55;14.37;;;10.90;;
1721;SDS011;858;53.190;8.596;2023-09-08T09:28:21;10.80;;;9.73;;
1721;SDS011;858;53.190;8.596;2023-09-08T09:30:48;17.80;;;10.70;;
1721;SDS011;858;53.190;8.596;2023-09-08T09:33:16;11.87;;;10.40;;
1721;SDS011;858;53.190;8.596;2023-09-08T09:35:43;16.03;;;10.20;;
1721;SDS011;858;53.190;8.596;2023-09-08T09:38:10;16.70;;;10.03;;
1721;SDS011;858;53.190;8.596;2023-09-08T09:40:37;16.40;;;10.07;;
1721;SDS011;858;53.190;8.596;2023-09-08T09:43:06;18.60;;;10.80;;
1721;SDS011;858;53.190;8.596;2023-09-08T09:45:33;11.27;;;9.40;;
1721;SDS011;858;53.190;8.596;2023-09-08T09:47:59;10.20;;;9.03;;
1721;SDS011;858;53.190;8.596;2023-09-08T09:50:27;21.60;;;9.90;;
1721;SDS011;858;53.190;8.596;2023-09-08T09:52:55;17.73;;;9.53;;
1721;SDS011;858;53.190;8.596;2023-09-08T09:55:21;20.83;;;9.80;;
1721;SDS011;858;53.190;8.596;2023-09-08T09:57:47;16.97;;;9.50;;
1721;SDS011;858;53.190;8.596;2023-09-08T10:00:16;21.47;;;9.73;;
1721;SDS011;858;53.190;8.596;2023-09-08T10:02:44;19.03;;;9.20;;
1721;SDS011;858;53.190;8.596;2023-09-08T10:05:11;15.80;;;10.67;;
1721;SDS011;858;53.190;8.596;2023-09-08T10:07:38;17.47;;;10.80;;
1721;SDS011;858;53.190;8.596;2023-09-08T10:10:05;15.93;;;10.83;;
1721;SDS011;858;53.190;8.596;2023-09-08T10:12:33;20.50;;;10.80;;
1721;SDS011;858;53.190;8.596;2023-09-08T10:15:00;17.23;;;10.33;;
1721;SDS011;858;53.190;8.596;2023-09-08T10:17:30;19.90;;;11.90;;
1721;SDS011;858;53.190;8.596;2023-09-08T10:19:57;19.10;;;11.80;;
1721;SDS011;858;53.190;8.596;2023-09-08T10:22:27;11.70;;;9.07;;
1721;SDS011;858;53.190;8.596;2023-09-08T10:24:56;14.57;;;9.50;;
1721;SDS011;858;53.190;8.596;2023-09-08T10:27:23;11.40;;;9.03;;
1721;SDS011;858;53.190;8.596;2023-09-08T10:29:50;14.70;;;9.57;;
1721;SDS011;858;53.190;8.596;2023-09-08T10:32:17;15.73;;;10.53;;
1721;SDS011;858;53.190;8.596;2023-09-08T10:34:46;15.30;;;9.30;;
1721;SDS011;858;53.190;8.596;2023-09-08T10:37:20;15.33;;;9.60;;
1721;SDS011;858;53.190;8.596;2023-09-08T10:39:46;19.50;;;10.10;;
1721;SDS011;858;53.190;8.596;2023-09-08T10:42:23;13.43;;;9.13;;
1721;SDS011;858;53.190;8.596;2023-09-08T10:44:56;12.40;;;8.70;;
1721;SDS011;858;53.190;8.596;2023-09-08T10:47:23;11.00;;;8.53;;
1721;SDS011;858;53.190;8.596;2023-09-08T10:49:52;15.20;;;9.63;;
1721;SDS011;858;53.190;8.596;2023-09-08T10:52:20;15.83;;;9.33;;
1721;SDS011;858;53.190;8.596;2023-09-08T10:54:47;11.40;;;8.27;;
1721;SDS011;858;53.190;8.596;2023-09-08T10:57:15;15.73;;;9.23;;
1721;SDS011;858;53.190;8.596;2023-09-08T10:59:44;19.03;;;9.53;;
1721;SDS011;858;53.190;8.596;2023-09-08T11:02:20;13.50;;;9.37;;
1721;SDS011;858;53.190;8.596;2023-09-08T11:04:59;19.57;;;9.77;;
1721;SDS011;858;53.190;8.596;2023-09-08T11:07:26;10.97;;;9.60;;
1721;SDS011;858;53.190;8.596;2023-09-08T11:09:52;16.23;;;8.90;;
1721;SDS011;858;53.190;8.596;2023-09-08T11:12:18;12.13;;;8.83;;
1721;SDS011;858;53.190;8.596;2023-09-08T11:14:48;17.83;;;9.67;;
1721;SDS011;858;53.190;8.596;2023-09-08T11:17:14;14.00;;;9.30;;
1721;SDS011;858;53.190;8.596;2023-09-08T11:19:45;12.93;;;8.83;;
1721;SDS011;858;53.190;8.596;2023-09-08T11:22:13;11.60;;;9.00;;
1721;SDS011;858;53.190;8.596;2023-09-08T11:24:41;12.73;;;8.63;;
1721;SDS011;858;53.190;8.596;2023-09-08T11:27:10;15.30;;;9.40;;
1721;SDS011;858;53.190;8.596;2023-09-08T11:29:37;13.27;;;8.53;;
1721;SDS011;858;53.190;8.596;2023-09-08T11:32:06;12.73;;;9.13;;
1721;SDS011;858;53.190;8.596;2023-09-08T11:34:32;10.07;;;8.23;;
1721;SDS011;858;53.190;8.596;2023-09-08T11:36:59;12.00;;;8.20;;
1721;SDS011;858;53.190;8.596;2023-09-08T11:39:27;11.43;;;8.63;;
1721;SDS011;858;53.190;8.596;2023-09-08T11:41:53;8.87;;;7.70;;
1721;SDS011;858;53.190;8.596;2023-09-08T11:44:20;10.37;;;8.20;;
1721;SDS011;858;53.190;8.596;2023-09-08T11:46:46;11.53;;;8.27;;
1721;SDS011;858;53.190;8.596;2023-09-08T11:49:13;13.30;;;8.33;;
1721;SDS011;858;53.190;8.596;2023-09-08T11:51:39;11.80;;;8.10;;
1721;SDS011;858;53.190;8.596;2023-09-08T11:54:06;8.93;;;8.13;;
1721;SDS011;858;53.190;8.596;2023-09-08T11:56:34;9.20;;;7.70;;
1721;SDS011;858;53.190;8.596;2023-09-08T11:59:01;9.50;;;7.80;;
1721;SDS011;858;53.190;8.596;2023-09-08T12:01:28;10.47;;;8.23;;
1721;SDS011;858;53.190;8.596;2023-09-08T12:03:55;10.03;;;6.87;;
1721;SDS011;858;53.190;8.596;2023-09-08T12:06:23;10.67;;;7.40;;
1721;SDS011;858;53.190;8.596;2023-09-08T12:08:51;8.53;;;7.23;;
1721;SDS011;858;53.190;8.596;2023-09-08T12:11:18;8.60;;;6.80;;
1721;SDS011;858;53.190;8.596;2023-09-08T12:13:45;7.93;;;6.93;;
1721;SDS011;858;53.190;8.596;2023-09-08T12:16:18;7.97;;;7.20;;
1721;SDS011;858;53.190;8.596;2023-09-08T12:18:45;7.30;;;6.30;;
1721;SDS011;858;53.190;8.596;2023-09-08T12:21:11;7.57;;;6.50;;
1721;SDS011;858;53.190;8.596;2023-09-08T12:23:46;6.50;;;6.03;;
1721;SDS011;858;53.190;8.596;2023-09-08T12:26:13;7.20;;;6.50;;
1721;SDS011;858;53.190;8.596;2023-09-08T12:28:41;10.20;;;6.70;;
1721;SDS011;858;53.190;8.596;2023-09-08T12:31:09;8.23;;;7.63;;
1721;SDS011;858;53.190;8.596;2023-09-08T12:33:35;6.90;;;6.20;;
1721;SDS011;858;53.190;8.596;2023-09-08T12:36:09;6.77;;;6.10;;
1721;SDS011;858;53.190;8.596;2023-09-08T12:38:36;8.07;;;7.10;;
1721;SDS011;858;53.190;8.596;2023-09-08T12:41:04;8.07;;;7.10;;
1721;SDS011;858;53.190;8.596;2023-09-08T12:43:31;7.90;;;7.10;;
1721;SDS011;858;53.190;8.596;2023-09-08T12:45:57;13.07;;;7.90;;
1721;SDS011;858;53.190;8.596;2023-09-08T12:48:25;9.63;;;6.87;;
1721;SDS011;858;53.190;8.596;2023-09-08T12:50:51;8.00;;;7.20;;
1721;SDS011;858;53.190;8.596;2023-09-08T12:53:18;8.40;;;7.37;;
1721;SDS011;858;53.190;8.596;2023-09-08T12:55:45;8.80;;;6.97;;
1721;SDS011;858;53.190;8.596;2023-09-08T12:58:11;7.93;;;7.23;;
1721;SDS011;858;53.190;8.596;2023-09-08T13:00:38;9.50;;;7.33;;
1721;SDS011;858;53.190;8.596;2023-09-08T13:03:04;9.73;;;7.00;;
1721;SDS011;858;53.190;8.596;2023-09-08T13:05:32;7.20;;;6.57;;
1721;SDS011;858;53.190;8.596;2023-09-08T13:07:59;7.87;;;7.07;;
1721;SDS011;858;53.190;8.596;2023-09-08T13:10:25;8.40;;;7.20;;
1721;SDS011;858;53.190;8.596;2023-09-08T13:12:51;7.80;;;6.77;;
1721;SDS011;858;53.190;8.596;2023-09-08T13:15:18;7.47;;;6.87;;
1721;SDS011;858;53.190;8.596;2023-09-08T13:17:44;8.80;;;7.30;;
1721;SDS011;858;53.190;8.596;2023-09-08T13:20:11;7.63;;;6.83;;
1721;SDS011;858;53.190;8.596;2023-09-08T13:22:38;8.83;;;7.57;;
1721;SDS011;858;53.190;8.596;2023-09-08T13:25:05;8.30;;;7.50;;
1721;SDS011;858;53.190;8.596;2023-09-08T13:27:32;7.63;;;6.87;;
1721;SDS011;858;53.190;8.596;2023-09-08T13:30:07;7.63;;;6.90;;
1721;SDS011;858;53.190;8.596;2023-09-08T13:32:35;9.07;;;8.00;;
1721;SDS011;858;53.190;8.596;2023-09-08T13:35:02;8.37;;;6.07;;
1721;SDS011;858;53.190;8.596;2023-09-08T13:37:28;12.27;;;7.47;;
1721;SDS011;858;53.190;8.596;2023-09-08T13:39:57;7.30;;;6.60;;
1721;SDS011;858;53.190;8.596;2023-09-08T13:42:23;8.37;;;7.33;;
1721;SDS011;858;53.190;8.596;2023-09-08T13:44:49;8.60;;;6.93;;
1721;SDS011;858;53.190;8.596;2023-09-08T13:47:16;7.60;;;6.90;;
1721;SDS011;858;53.190;8.596;2023-09-08T13:49:42;7.17;;;6.57;;
1721;SDS011;858;53.190;8.596;2023-09-08T13:52:08;8.33;;;7.27;;
1721;SDS011;858;53.190;8.596;2023-09-08T13:54:35;8.40;;;7.60;;
1721;SDS011;858;53.190;8.596;2023-09-08T13:57:03;7.50;;;6.90;;
1721;SDS011;858;53.190;8.596;2023-09-08T13:59:29;8.80;;;8.00;;
1721;SDS011;858;53.190;8.596;2023-09-08T14:01:56;7.80;;;7.10;;
1721;SDS011;858;53.190;8.596;2023-09-08T14:04:23;8.57;;;7.73;;
1721;SDS011;858;53.190;8.596;2023-09-08T14:06:50;10.33;;;7.30;;
1721;SDS011;858;53.190;8.596;2023-09-08T14:09:16;8.17;;;6.73;;
1721;SDS011;858;53.190;8.596;2023-09-08T14:11:44;9.43;;;6.70;;
1721;SDS011;858;53.190;8.596;2023-09-08T14:14:11;7.30;;;6.47;;
1721;SDS011;858;53.190;8.596;2023-09-08T14:16:38;6.90;;;6.30;;
1721;SDS011;858;53.190;8.596;2023-09-08T14:19:05;7.70;;;6.87;;
1721;SDS011;858;53.190;8.596;2023-09-08T14:21:32;7.53;;;6.83;;
1721;SDS011;858;53.190;8.596;2023-09-08T14:23:58;9.03;;;7.30;;
1721;SDS011;858;53.190;8.596;2023-09-08T14:26:25;9.20;;;7.77;;
1721;SDS011;858;53.190;8.596;2023-09-08T14:28:51;7.23;;;6.53;;
1721;SDS011;858;53.190;8.596;2023-09-08T14:31:20;7.90;;;7.10;;
1721;SDS011;858;53.190;8.596;2023-09-08T14:33:47;10.33;;;7.07;;
1721;SDS011;858;53.190;8.596;2023-09-08T14:36:16;10.23;;;6.67;;
1721;SDS011;858;53.190;8.596;2023-09-08T14:38:42;6.47;;;5.87;;
1721;SDS011;858;53.190;8.596;2023-09-08T14:41:09;7.33;;;6.63;;
1721;SDS011;858;53.190;8.596;2023-09-08T14:43:36;9.20;;;6.70;;
1721;SDS011;858;53.190;8.596;2023-09-08T14:46:02;7.17;;;6.57;;
1721;SDS011;858;53.190;8.596;2023-09-08T14:48:30;7.37;;;6.30;;
1721;SDS011;858;53.190;8.596;2023-09-08T14:50:57;8.63;;;7.50;;
1721;SDS011;858;53.190;8.596;2023-09-08T14:53:23;13.17;;;7.07;;
1721;SDS011;858;53.190;8.596;2023-09-08T14:55:50;9.70;;;6.90;;
1721;SDS011;858;53.190;8.596;2023-09-08T14:58:20;10.77;;;6.60;;
1721;SDS011;858;53.190;8.596;2023-09-08T15:00:46;7.90;;;7.17;;
1721;SDS011;858;53.190;8.596;2023-09-08T15:03:13;7.70;;;6.30;;
1721;SDS011;858;53.190;8.596;2023-09-08T15:05:40;6.80;;;6.20;;
1721;SDS011;858;53.190;8.596;2023-09-08T15:08:07;7.80;;;7.03;;
1721;SDS011;858;53.190;8.596;2023-09-08T15:10:33;10.23;;;6.93;;
1721;SDS011;858;53.190;8.596;2023-09-08T15:12:59;9.00;;;6.80;;
1721;SDS011;858;53.190;8.596;2023-09-08T15:15:26;6.90;;;6.20;;